createdAt,value
2023-04-16T00:01:06.345Z,3.42
2023-04-16T00:03:33.305Z,3.16
2023-04-16T00:06:00.816Z,3.19
2023-04-16T00:08:27.523Z,3.03
2023-04-16T00:10:54.299Z,2.96
2023-04-16T00:13:21.448Z,2.78
2023-04-16T00:15:48.632Z,2.66
2023-04-16T00:18:15.539Z,2.83
2023-04-16T00:20:42.229Z,3.00
2023-04-16T00:23:08.866Z,3.18
2023-04-16T00:25:35.577Z,3.17
2023-04-16T00:28:02.133Z,3.44
2023-04-16T00:30:28.930Z,3.60
2023-04-16T00:32:55.528Z,3.29
2023-04-16T00:35:22.090Z,2.87
2023-04-16T00:37:48.825Z,3.12
2023-04-16T00:40:15.582Z,3.00
2023-04-16T00:42:42.136Z,3.25
2023-04-16T00:45:09.712Z,3.28
2023-04-16T00:47:36.552Z,3.21
2023-04-16T00:50:04.619Z,3.52
2023-04-16T00:52:33.070Z,3.61
2023-04-16T00:54:59.983Z,3.77
2023-04-16T00:57:26.999Z,3.75
2023-04-16T00:59:54.306Z,3.56
2023-04-16T01:02:21.062Z,3.65
2023-04-16T01:04:48.044Z,3.75
2023-04-16T01:07:14.555Z,4.01
2023-04-16T01:09:41.389Z,3.84
2023-04-16T01:12:08.211Z,4.02
2023-04-16T01:14:36.379Z,4.09
2023-04-16T01:17:04.160Z,4.13
2023-04-16T01:19:36.287Z,4.21
2023-04-16T01:22:04.229Z,4.55
2023-04-16T01:24:31.252Z,4.96
2023-04-16T01:27:01.364Z,4.88
2023-04-16T01:29:27.997Z,4.46
2023-04-16T01:31:54.609Z,4.92
2023-04-16T01:34:21.463Z,4.72
2023-04-16T01:36:48.046Z,4.58
2023-04-16T01:39:16.347Z,4.88
2023-04-16T01:41:45.170Z,5.01
2023-04-16T01:44:11.688Z,4.85
2023-04-16T01:46:38.761Z,4.88
2023-04-16T01:49:07.469Z,5.43
2023-04-16T01:51:34.316Z,4.92
2023-04-16T01:54:01.288Z,5.13
2023-04-16T01:56:27.971Z,5.17
2023-04-16T01:58:56.254Z,5.43
2023-04-16T02:01:22.936Z,5.53
2023-04-16T02:03:50.055Z,5.53
2023-04-16T02:06:16.886Z,5.67
2023-04-16T02:08:43.499Z,5.60
2023-04-16T02:11:10.374Z,6.66
2023-04-16T02:13:37.349Z,7.16
2023-04-16T02:16:04.314Z,6.80
2023-04-16T02:18:30.848Z,7.01
2023-04-16T02:20:59.884Z,7.22
2023-04-16T02:23:26.807Z,7.15
2023-04-16T02:25:53.683Z,7.45
2023-04-16T02:28:20.267Z,7.65
2023-04-16T02:30:46.806Z,6.90
2023-04-16T02:33:13.468Z,6.85
2023-04-16T02:35:41.070Z,6.84
2023-04-16T02:38:08.354Z,7.34
2023-04-16T02:40:35.427Z,8.04
2023-04-16T02:43:02.114Z,7.98
2023-04-16T02:45:28.762Z,7.69
2023-04-16T02:47:55.367Z,7.93
2023-04-16T02:50:22.080Z,8.09
2023-04-16T02:52:48.690Z,8.56
2023-04-16T02:55:15.336Z,8.33
2023-04-16T02:57:42.762Z,8.50
2023-04-16T03:00:10.136Z,9.01
2023-04-16T03:02:36.901Z,9.04
2023-04-16T03:05:04.180Z,8.98
2023-04-16T03:07:31.037Z,9.14
2023-04-16T03:09:57.778Z,9.32
2023-04-16T03:12:24.407Z,9.09
2023-04-16T03:14:52.680Z,9.58
2023-04-16T03:17:19.384Z,9.85
2023-04-16T03:19:46.169Z,9.60
2023-04-16T03:22:12.848Z,10.38
2023-04-16T03:24:39.570Z,10.50
2023-04-16T03:27:06.382Z,11.11
2023-04-16T03:29:32.960Z,10.51
2023-04-16T03:31:59.538Z,10.23
2023-04-16T03:34:26.133Z,10.18
2023-04-16T03:36:52.710Z,10.21
2023-04-16T03:39:19.383Z,9.28
2023-04-16T03:41:46.350Z,10.02
2023-04-16T03:44:12.969Z,9.68
2023-04-16T03:46:39.639Z,9.42
2023-04-16T03:49:06.266Z,9.61
2023-04-16T03:51:32.870Z,9.34
2023-04-16T03:53:59.469Z,9.42
2023-04-16T03:56:26.165Z,9.65
2023-04-16T03:58:52.689Z,10.67
2023-04-16T04:01:19.199Z,12.05
2023-04-16T04:03:46.006Z,12.77
2023-04-16T04:06:12.816Z,12.68
2023-04-16T04:08:39.332Z,11.86
2023-04-16T04:11:06.012Z,11.43
2023-04-16T04:13:32.555Z,10.95
2023-04-16T04:15:59.151Z,10.16
2023-04-16T04:18:25.724Z,10.05
2023-04-16T04:20:52.336Z,10.43
2023-04-16T04:23:19.075Z,11.01
2023-04-16T04:25:45.998Z,10.98
2023-04-16T04:28:12.611Z,11.04
2023-04-16T04:30:39.320Z,11.47
2023-04-16T04:33:06.321Z,10.48
2023-04-16T04:35:33.346Z,10.55
2023-04-16T04:38:00.208Z,10.43
2023-04-16T04:40:26.773Z,10.43
2023-04-16T04:42:53.314Z,10.40
2023-04-16T04:45:19.859Z,9.84
2023-04-16T04:47:48.768Z,9.52
2023-04-16T04:50:15.594Z,10.58
2023-04-16T04:52:42.173Z,10.26
2023-04-16T04:55:08.988Z,10.62
2023-04-16T04:57:35.843Z,10.87
2023-04-16T05:00:04.121Z,10.28
2023-04-16T05:02:30.785Z,10.45
2023-04-16T05:04:58.874Z,10.18
2023-04-16T05:07:25.502Z,10.44
2023-04-16T05:09:52.064Z,10.35
2023-04-16T05:12:18.635Z,9.94
2023-04-16T05:14:45.394Z,10.66
2023-04-16T05:17:12.161Z,10.77
2023-04-16T05:19:39.037Z,10.76
2023-04-16T05:22:05.732Z,10.96
2023-04-16T05:24:32.654Z,10.73
2023-04-16T05:26:59.180Z,10.61
2023-04-16T05:29:25.855Z,11.21
2023-04-16T05:31:52.924Z,11.15
2023-04-16T05:34:19.526Z,10.52
2023-04-16T05:36:46.299Z,10.97
2023-04-16T05:39:12.905Z,11.19
2023-04-16T05:41:39.421Z,10.97
2023-04-16T05:44:05.966Z,11.06
2023-04-16T05:46:32.557Z,10.81
2023-04-16T05:48:59.160Z,11.08
2023-04-16T05:51:27.531Z,10.93
2023-04-16T05:53:54.054Z,11.12
2023-04-16T05:56:21.803Z,11.17
2023-04-16T05:58:48.321Z,10.46
2023-04-16T06:01:14.889Z,10.78
2023-04-16T06:03:41.639Z,10.96
2023-04-16T06:06:09.166Z,10.75
2023-04-16T06:08:35.831Z,10.95
2023-04-16T06:11:03.597Z,11.59
2023-04-16T06:13:30.256Z,10.83
2023-04-16T06:15:56.847Z,11.18
2023-04-16T06:18:23.621Z,11.04
2023-04-16T06:20:50.490Z,11.04
2023-04-16T06:23:17.168Z,11.07
2023-04-16T06:25:43.676Z,11.56
2023-04-16T06:28:10.217Z,11.59
2023-04-16T06:30:36.741Z,11.35
2023-04-16T06:33:03.419Z,11.36
2023-04-16T06:35:29.998Z,12.03
2023-04-16T06:37:56.904Z,12.50
2023-04-16T06:40:23.474Z,13.06
2023-04-16T06:42:50.306Z,12.62
2023-04-16T06:45:16.941Z,12.95
2023-04-16T06:47:43.603Z,13.00
2023-04-16T06:50:10.469Z,13.14
2023-04-16T06:52:37.075Z,13.44
2023-04-16T06:55:03.912Z,12.63
2023-04-16T06:57:30.565Z,12.69
2023-04-16T06:59:57.196Z,13.64
2023-04-16T07:02:24.324Z,13.39
2023-04-16T07:04:52.290Z,14.75
2023-04-16T07:07:18.978Z,14.53
2023-04-16T07:09:45.564Z,14.02
2023-04-16T07:12:12.355Z,13.77
2023-04-16T07:14:39.155Z,14.94
2023-04-16T07:17:05.887Z,15.60
2023-04-16T07:19:32.774Z,15.04
2023-04-16T07:22:03.555Z,15.46
2023-04-16T07:24:30.482Z,15.67
2023-04-16T07:26:57.208Z,15.85
2023-04-16T07:29:23.812Z,15.85
2023-04-16T07:31:51.407Z,15.37
2023-04-16T07:34:19.140Z,15.02
2023-04-16T07:36:45.978Z,14.62
2023-04-16T07:39:13.145Z,14.62
2023-04-16T07:41:40.985Z,13.77
2023-04-16T07:44:08.082Z,13.91
2023-04-16T07:46:45.630Z,13.85
2023-04-16T07:49:13.419Z,12.88
2023-04-16T07:51:40.036Z,13.05
2023-04-16T07:54:06.707Z,12.56
2023-04-16T07:56:33.369Z,13.27
2023-04-16T07:59:07.907Z,12.87
2023-04-16T08:01:41.590Z,12.80
2023-04-16T08:04:08.357Z,12.37
2023-04-16T08:06:35.050Z,11.90
2023-04-16T08:09:01.545Z,12.25
2023-04-16T08:11:28.831Z,11.23
2023-04-16T08:13:55.856Z,11.72
2023-04-16T08:16:22.707Z,11.48
2023-04-16T08:18:49.407Z,10.95
2023-04-16T08:21:15.998Z,11.19
2023-04-16T08:23:42.509Z,10.22
2023-04-16T08:26:09.033Z,10.37
2023-04-16T08:28:37.597Z,9.48
2023-04-16T08:31:04.302Z,9.47
2023-04-16T08:33:30.990Z,9.56
2023-04-16T08:35:57.578Z,8.89
2023-04-16T08:38:24.184Z,9.89
2023-04-16T08:40:51.252Z,8.95
2023-04-16T08:43:19.335Z,8.41
2023-04-16T08:45:47.545Z,8.47
2023-04-16T08:48:15.570Z,8.33
2023-04-16T08:50:44.038Z,8.48
2023-04-16T08:53:18.886Z,8.12
2023-04-16T08:55:50.618Z,7.48
2023-04-16T08:58:22.545Z,7.34
2023-04-16T09:00:49.819Z,7.55
2023-04-16T09:03:16.489Z,7.08
2023-04-16T09:05:44.059Z,7.06
2023-04-16T09:08:10.715Z,7.54
2023-04-16T09:10:37.331Z,7.44
2023-04-16T09:13:04.023Z,7.66
2023-04-16T09:15:30.805Z,7.95
2023-04-16T09:17:57.852Z,8.50
2023-04-16T09:20:24.731Z,8.25
2023-04-16T09:22:51.358Z,8.41
2023-04-16T09:25:21.352Z,7.96
2023-04-16T09:27:50.942Z,8.38
2023-04-16T09:30:26.170Z,7.44
2023-04-16T09:33:12.149Z,7.62
2023-04-16T09:36:05.954Z,8.04
2023-04-16T09:38:52.647Z,7.89
2023-04-16T09:41:20.564Z,7.89
2023-04-16T09:43:58.324Z,7.76
2023-04-16T09:46:34.974Z,8.12
2023-04-16T09:49:15.473Z,8.40
2023-04-16T09:51:43.645Z,8.13
2023-04-16T09:54:11.225Z,8.38
2023-04-16T09:56:43.678Z,8.89
2023-04-16T09:59:21.119Z,9.45
2023-04-16T10:01:53.332Z,9.20
2023-04-16T10:04:51.297Z,9.96
2023-04-16T10:07:19.515Z,9.95
2023-04-16T10:09:50.788Z,9.49
2023-04-16T10:12:17.309Z,9.43
2023-04-16T10:14:43.936Z,9.17
2023-04-16T10:17:10.994Z,9.62
2023-04-16T10:19:38.410Z,10.18
2023-04-16T10:22:05.523Z,11.00
2023-04-16T10:24:34.542Z,12.75
2023-04-16T10:27:01.778Z,12.86
2023-04-16T10:29:31.230Z,13.39
2023-04-16T10:31:59.428Z,13.26
2023-04-16T10:34:27.622Z,12.82
2023-04-16T10:36:55.294Z,12.78
2023-04-16T10:39:24.102Z,12.81
2023-04-16T10:41:52.592Z,12.71
2023-04-16T10:44:19.696Z,12.93
2023-04-16T10:46:49.797Z,12.96
2023-04-16T10:49:23.310Z,12.95
2023-04-16T10:52:02.243Z,12.54
2023-04-16T10:54:31.056Z,12.63
2023-04-16T10:57:01.648Z,13.00
2023-04-16T10:59:35.282Z,12.27
2023-04-16T11:02:08.573Z,13.03
2023-04-16T11:04:38.069Z,12.71
2023-04-16T11:07:07.482Z,13.18
2023-04-16T11:09:59.997Z,12.61
2023-04-16T11:12:29.682Z,11.86
2023-04-16T11:15:10.009Z,12.58
2023-04-16T11:17:40.223Z,12.14
2023-04-16T11:20:19.080Z,11.93
2023-04-16T11:22:50.650Z,11.45
2023-04-16T11:25:31.860Z,11.53
2023-04-16T11:27:59.261Z,12.26
2023-04-16T11:30:31.572Z,12.54
2023-04-16T11:32:58.230Z,12.47
2023-04-16T11:35:25.235Z,12.80
2023-04-16T11:37:56.865Z,13.32
2023-04-16T11:40:24.190Z,13.73
2023-04-16T11:42:50.828Z,13.60
2023-04-16T11:45:19.381Z,13.69
2023-04-16T11:47:51.734Z,13.62
2023-04-16T11:50:28.766Z,13.32
2023-04-16T11:52:58.949Z,13.84
2023-04-16T11:55:25.682Z,13.96
2023-04-16T11:57:52.765Z,13.67
2023-04-16T12:00:23.751Z,13.29
2023-04-16T12:02:53.931Z,13.59
2023-04-16T12:05:35.300Z,14.73
2023-04-16T12:08:04.618Z,15.49
2023-04-16T12:10:37.354Z,14.96
2023-04-16T12:13:14.484Z,15.57
2023-04-16T12:15:55.904Z,15.03
2023-04-16T12:18:26.078Z,14.06
2023-04-16T12:20:52.845Z,13.63
2023-04-16T12:23:27.795Z,13.25
2023-04-16T12:25:57.913Z,13.60
2023-04-16T12:28:29.948Z,13.13
2023-04-16T12:30:56.996Z,12.75
2023-04-16T12:33:23.765Z,12.35
2023-04-16T12:35:51.080Z,12.85
2023-04-16T12:38:17.999Z,11.29
2023-04-16T12:40:44.967Z,11.33
2023-04-16T12:43:11.545Z,11.56
2023-04-16T12:45:40.038Z,11.56
2023-04-16T12:48:07.137Z,11.28
2023-04-16T12:50:33.738Z,11.75
2023-04-16T12:53:00.345Z,11.82
2023-04-16T12:55:26.909Z,11.40
2023-04-16T12:57:54.612Z,11.03
2023-04-16T13:00:21.988Z,11.39
2023-04-16T13:02:48.770Z,12.18
2023-04-16T13:05:16.623Z,12.37
2023-04-16T13:07:43.323Z,12.53
2023-04-16T13:10:13.623Z,13.37
2023-04-16T13:12:40.335Z,13.33
2023-04-16T13:15:07.480Z,14.05
2023-04-16T13:17:34.073Z,13.38
2023-04-16T13:20:00.609Z,13.77
2023-04-16T13:22:27.190Z,13.96
2023-04-16T13:24:53.899Z,14.36
2023-04-16T13:27:21.081Z,14.12
2023-04-16T13:29:47.673Z,14.64
2023-04-16T13:32:14.810Z,15.52
2023-04-16T13:34:41.525Z,14.21
2023-04-16T13:37:08.130Z,14.29
2023-04-16T13:39:34.724Z,14.30
2023-04-16T13:42:01.822Z,13.81
2023-04-16T13:44:28.380Z,13.23
2023-04-16T13:46:56.130Z,13.79
2023-04-16T13:49:23.407Z,12.70
2023-04-16T13:51:50.033Z,13.37
2023-04-16T13:54:16.878Z,12.79
2023-04-16T13:56:43.995Z,12.43
2023-04-16T13:59:10.907Z,12.62
2023-04-16T14:01:37.817Z,12.61
2023-04-16T14:04:06.822Z,12.13
2023-04-16T14:06:34.720Z,12.11
2023-04-16T14:09:01.886Z,12.03
2023-04-16T14:11:28.719Z,11.27
2023-04-16T14:13:55.517Z,11.72
2023-04-16T14:16:22.296Z,11.96
2023-04-16T14:18:48.872Z,11.58
2023-04-16T14:21:15.583Z,11.43
2023-04-16T14:23:42.155Z,11.94
2023-04-16T14:26:08.931Z,11.68
2023-04-16T14:28:35.943Z,11.53
2023-04-16T14:31:02.557Z,11.70
2023-04-16T14:33:29.266Z,11.58
2023-04-16T14:35:56.061Z,12.01
2023-04-16T14:38:22.701Z,12.03
2023-04-16T14:40:49.412Z,12.19
2023-04-16T14:43:16.281Z,12.15
2023-04-16T14:45:42.928Z,12.22
2023-04-16T14:48:09.549Z,12.20
2023-04-16T14:50:37.918Z,12.22
2023-04-16T14:53:05.315Z,12.39
2023-04-16T14:55:32.303Z,12.37
2023-04-16T14:57:59.725Z,11.90
2023-04-16T15:00:27.273Z,12.17
2023-04-16T15:02:54.872Z,12.26
2023-04-16T15:05:22.026Z,12.19
2023-04-16T15:07:48.714Z,14.98
2023-04-16T15:10:15.628Z,12.86
2023-04-16T15:12:42.231Z,12.64
2023-04-16T15:15:09.455Z,12.85
2023-04-16T15:17:36.285Z,12.13
2023-04-16T15:20:05.921Z,12.62
2023-04-16T15:22:32.460Z,12.94
2023-04-16T15:24:59.019Z,12.76
2023-04-16T15:27:25.890Z,13.41
2023-04-16T15:29:53.882Z,13.18
2023-04-16T15:32:20.609Z,13.27
2023-04-16T15:34:47.209Z,13.72
2023-04-16T15:37:14.032Z,13.78
2023-04-16T15:39:40.706Z,12.82
2023-04-16T15:42:08.114Z,13.30
2023-04-16T15:44:34.793Z,13.82
2023-04-16T15:47:01.371Z,14.73
2023-04-16T15:49:28.078Z,14.47
2023-04-16T15:51:55.932Z,13.90
2023-04-16T15:54:22.505Z,14.19
2023-04-16T15:56:49.138Z,14.07
2023-04-16T15:59:15.991Z,14.76
2023-04-16T16:01:42.643Z,15.36
2023-04-16T16:04:09.733Z,14.48
2023-04-16T16:06:38.122Z,14.19
2023-04-16T16:09:04.980Z,14.32
2023-04-16T16:11:32.560Z,13.90
2023-04-16T16:14:02.387Z,14.05
2023-04-16T16:16:29.185Z,14.28
2023-04-16T16:18:55.938Z,14.34
2023-04-16T16:21:22.716Z,14.77
2023-04-16T16:23:49.352Z,15.19
2023-04-16T16:26:16.151Z,14.80
2023-04-16T16:28:45.940Z,15.21
2023-04-16T16:31:12.565Z,14.82
2023-04-16T16:33:41.522Z,15.23
2023-04-16T16:36:11.955Z,15.34
2023-04-16T16:38:40.837Z,15.62
2023-04-16T16:41:07.912Z,15.31
2023-04-16T16:43:37.924Z,16.01
2023-04-16T16:46:07.287Z,16.62
2023-04-16T16:48:33.993Z,16.18
2023-04-16T16:51:00.971Z,15.47
2023-04-16T16:53:27.683Z,16.05
2023-04-16T16:55:54.768Z,15.83
2023-04-16T16:58:21.392Z,15.87
2023-04-16T17:00:48.055Z,15.43
2023-04-16T17:03:14.841Z,15.50
2023-04-16T17:05:46.365Z,16.52
2023-04-16T17:08:16.531Z,16.75
2023-04-16T17:10:43.797Z,16.10
2023-04-16T17:13:10.635Z,17.21
2023-04-16T17:15:37.303Z,17.33
2023-04-16T17:18:04.169Z,16.85
2023-04-16T17:20:32.484Z,15.53
2023-04-16T17:22:59.481Z,16.66
2023-04-16T17:25:26.311Z,16.25
2023-04-16T17:27:53.024Z,16.87
2023-04-16T17:30:19.768Z,16.95
2023-04-16T17:32:46.514Z,17.71
2023-04-16T17:35:13.984Z,16.78
2023-04-16T17:37:40.731Z,16.91
2023-04-16T17:40:07.967Z,16.97
2023-04-16T17:42:35.352Z,16.28
2023-04-16T17:45:02.783Z,16.46
2023-04-16T17:47:34.037Z,15.66
2023-04-16T17:50:00.911Z,15.64
2023-04-16T17:52:27.545Z,16.12
2023-04-16T17:55:00.219Z,15.91
2023-04-16T17:57:27.827Z,15.87
2023-04-16T17:59:54.352Z,16.93
2023-04-16T18:02:21.205Z,17.11
2023-04-16T18:04:48.594Z,17.18
2023-04-16T18:07:15.358Z,16.98
2023-04-16T18:09:42.053Z,16.18
2023-04-16T18:12:08.709Z,16.81
2023-04-16T18:14:35.815Z,17.16
2023-04-16T18:17:04.328Z,17.06
2023-04-16T18:19:32.995Z,17.09
2023-04-16T18:21:59.551Z,17.52
2023-04-16T18:24:26.186Z,17.35
2023-04-16T18:26:53.591Z,17.65
2023-04-16T18:29:24.828Z,18.08
2023-04-16T18:31:52.002Z,17.76
2023-04-16T18:34:18.660Z,18.24
2023-04-16T18:36:45.913Z,18.87
2023-04-16T18:39:12.515Z,19.21
2023-04-16T18:41:40.655Z,19.51
2023-04-16T18:44:07.262Z,19.13
2023-04-16T18:46:33.854Z,19.83
2023-04-16T18:49:00.590Z,19.73
2023-04-16T18:51:27.233Z,20.31
2023-04-16T18:53:53.818Z,20.08
2023-04-16T18:56:20.719Z,20.91
2023-04-16T18:58:47.813Z,20.41
2023-04-16T19:01:15.525Z,21.14
2023-04-16T19:03:42.254Z,21.95
2023-04-16T19:06:09.237Z,21.89
2023-04-16T19:08:35.865Z,20.78
2023-04-16T19:11:02.439Z,20.18
2023-04-16T19:13:30.297Z,19.65
2023-04-16T19:16:01.377Z,21.21
2023-04-16T19:18:28.143Z,21.29
2023-04-16T19:21:01.273Z,20.77
2023-04-16T19:23:28.772Z,20.44
2023-04-16T19:25:56.784Z,20.37
2023-04-16T19:28:24.495Z,19.87
2023-04-16T19:30:52.057Z,19.26
2023-04-16T19:33:19.142Z,19.36
2023-04-16T19:35:46.966Z,20.68
2023-04-16T19:38:13.644Z,20.22
2023-04-16T19:40:40.992Z,20.34
2023-04-16T19:43:07.654Z,21.47
2023-04-16T19:45:34.427Z,20.65
2023-04-16T19:48:01.088Z,20.52
2023-04-16T19:50:27.789Z,20.47
2023-04-16T19:52:54.384Z,20.37
2023-04-16T19:55:21.208Z,19.88
2023-04-16T19:57:48.241Z,20.70
2023-04-16T20:00:15.177Z,20.91
2023-04-16T20:02:41.960Z,21.32
2023-04-16T20:05:09.154Z,21.69
2023-04-16T20:07:35.915Z,21.36
2023-04-16T20:10:02.964Z,20.78
2023-04-16T20:12:29.675Z,21.56
2023-04-16T20:14:56.307Z,20.71
2023-04-16T20:17:23.013Z,20.24
2023-04-16T20:19:51.228Z,20.65
2023-04-16T20:22:18.789Z,20.81
2023-04-16T20:24:47.767Z,21.47
2023-04-16T20:27:19.364Z,21.76
2023-04-16T20:29:46.207Z,22.10
2023-04-16T20:32:12.780Z,21.91
2023-04-16T20:34:39.955Z,21.92
2023-04-16T20:37:07.556Z,23.15
2023-04-16T20:39:34.579Z,22.22
2023-04-16T20:42:04.119Z,23.39
2023-04-16T20:44:40.399Z,23.27
2023-04-16T20:47:11.617Z,23.55
2023-04-16T20:49:38.442Z,23.80
2023-04-16T20:52:05.574Z,23.93
2023-04-16T20:54:32.123Z,23.42
2023-04-16T20:56:58.905Z,23.90
2023-04-16T20:59:25.966Z,24.19
2023-04-16T21:01:52.729Z,23.37
2023-04-16T21:04:19.750Z,24.35
2023-04-16T21:06:46.956Z,23.52
2023-04-16T21:09:13.714Z,23.63
2023-04-16T21:11:40.367Z,23.71
2023-04-16T21:14:06.977Z,23.09
2023-04-16T21:16:36.056Z,24.02
2023-04-16T21:19:03.106Z,24.32
2023-04-16T21:21:29.749Z,24.34
2023-04-16T21:23:56.300Z,23.49
2023-04-16T21:26:22.912Z,22.77
2023-04-16T21:28:49.541Z,22.87
2023-04-16T21:31:16.366Z,21.99
2023-04-16T21:33:43.087Z,21.72
2023-04-16T21:36:10.456Z,21.75
2023-04-16T21:38:37.027Z,21.76
2023-04-16T21:41:03.718Z,21.94
2023-04-16T21:43:31.910Z,21.58
2023-04-16T21:45:59.118Z,21.96
2023-04-16T21:48:25.910Z,22.82
2023-04-16T21:50:56.063Z,21.55
2023-04-16T21:53:22.655Z,22.26
2023-04-16T21:55:49.217Z,21.92
2023-04-16T21:58:15.781Z,21.35
2023-04-16T22:00:42.459Z,21.71
2023-04-16T22:03:12.380Z,21.25
2023-04-16T22:05:39.149Z,22.06
2023-04-16T22:08:23.228Z,23.15
2023-04-16T22:10:50.410Z,23.89
2023-04-16T22:13:18.286Z,23.82
2023-04-16T22:15:44.969Z,24.36
2023-04-16T22:18:11.576Z,24.25
2023-04-16T22:20:39.241Z,23.91
2023-04-16T22:23:06.733Z,23.62
2023-04-16T22:25:33.506Z,24.34
2023-04-16T22:28:01.564Z,23.72
2023-04-16T22:30:28.382Z,24.84
2023-04-16T22:32:55.267Z,24.36
2023-04-16T22:35:21.946Z,24.03
2023-04-16T22:37:48.551Z,23.42
2023-04-16T22:40:15.743Z,24.83
2023-04-16T22:42:42.327Z,25.46
2023-04-16T22:45:09.504Z,24.73
2023-04-16T22:47:36.200Z,24.73
2023-04-16T22:50:03.159Z,25.56
2023-04-16T22:52:29.778Z,25.34
2023-04-16T22:54:56.329Z,24.88
2023-04-16T22:57:25.509Z,24.26
2023-04-16T22:59:53.044Z,25.42
2023-04-16T23:02:20.692Z,26.25
2023-04-16T23:04:47.790Z,26.53
2023-04-16T23:07:15.086Z,26.90
2023-04-16T23:09:42.359Z,25.91
2023-04-16T23:12:09.069Z,26.03
2023-04-16T23:14:36.747Z,26.43
2023-04-16T23:17:03.363Z,25.94
2023-04-16T23:19:31.168Z,26.07
2023-04-16T23:21:57.941Z,25.86
2023-04-16T23:24:24.510Z,25.13
2023-04-16T23:26:52.390Z,25.50
2023-04-16T23:29:20.628Z,25.76
2023-04-16T23:31:47.619Z,26.82
2023-04-16T23:34:14.606Z,27.31
2023-04-16T23:36:41.283Z,27.82
2023-04-16T23:39:07.821Z,27.93
2023-04-16T23:41:34.697Z,27.94
2023-04-16T23:44:01.380Z,27.40
2023-04-16T23:46:28.000Z,26.70
2023-04-16T23:48:57.300Z,27.00
2023-04-16T23:51:23.835Z,25.09
2023-04-16T23:53:50.498Z,24.81
2023-04-16T23:56:17.237Z,25.46
2023-04-16T23:58:43.861Z,26.62
